sensor_id;sensor_type;location;lat;lon;timestamp;pressure;altitude;pressure_sealevel;temperature;humidity
70127;BME280;57491;42.694;23.314;2023-03-14T00:00:15;95345.38;;;6.68;42.93
70127;BME280;57491;42.694;23.314;2023-03-14T00:02:42;95332.59;;;6.66;39.80
70127;BME280;57491;42.694;23.314;2023-03-14T00:05:10;95334.09;;;6.51;39.25
70127;BME280;57491;42.694;23.314;2023-03-14T00:07:38;95334.44;;;6.56;39.23
70127;BME280;57491;42.694;23.314;2023-03-14T00:10:08;95325.00;;;6.47;39.35
70127;BME280;57491;42.694;23.314;2023-03-14T00:12:36;95311.94;;;6.49;39.66
70127;BME280;57491;42.694;23.314;2023-03-14T00:15:04;95318.06;;;6.30;41.20
70127;BME280;57491;42.694;23.314;2023-03-14T00:17:33;95319.66;;;6.31;40.09
70127;BME280;57491;42.694;23.314;2023-03-14T00:20:00;95312.81;;;6.22;40.46
70127;BME280;57491;42.694;23.314;2023-03-14T00:22:31;95303.59;;;6.19;40.47
70127;BME280;57491;42.694;23.314;2023-03-14T00:24:58;95308.97;;;6.26;40.49
70127;BME280;57491;42.694;23.314;2023-03-14T00:27:25;95303.28;;;6.22;40.86
70127;BME280;57491;42.694;23.314;2023-03-14T00:29:52;95292.97;;;6.22;40.62
70127;BME280;57491;42.694;23.314;2023-03-14T00:32:19;95291.13;;;6.33;40.76
70127;BME280;57491;42.694;23.314;2023-03-14T00:34:47;95298.28;;;6.21;40.66
70127;BME280;57491;42.694;23.314;2023-03-14T00:37:14;95292.69;;;6.08;41.31
70127;BME280;57491;42.694;23.314;2023-03-14T00:39:42;95282.44;;;6.16;41.10
70127;BME280;57491;42.694;23.314;2023-03-14T00:42:09;95283.06;;;6.18;41.39
70127;BME280;57491;42.694;23.314;2023-03-14T00:44:37;95279.84;;;6.16;40.99
70127;BME280;57491;42.694;23.314;2023-03-14T00:47:04;95241.31;;;5.87;42.75
70127;BME280;57491;42.694;23.314;2023-03-14T00:49:31;95286.41;;;6.10;41.65
70127;BME280;57491;42.694;23.314;2023-03-14T00:51:58;95281.31;;;6.18;44.20
70127;BME280;57491;42.694;23.314;2023-03-14T00:54:26;95283.25;;;6.16;41.51
70127;BME280;57491;42.694;23.314;2023-03-14T00:56:55;95283.91;;;6.18;42.66
70127;BME280;57491;42.694;23.314;2023-03-14T00:59:22;95268.78;;;6.23;41.49
70127;BME280;57491;42.694;23.314;2023-03-14T01:01:49;95274.06;;;6.22;41.76
70127;BME280;57491;42.694;23.314;2023-03-14T01:04:16;95270.47;;;5.97;41.52
70127;BME280;57491;42.694;23.314;2023-03-14T01:06:43;95270.78;;;5.84;41.84
70127;BME280;57491;42.694;23.314;2023-03-14T01:09:10;95265.25;;;5.79;43.50
70127;BME280;57491;42.694;23.314;2023-03-14T01:11:37;95277.81;;;5.92;42.22
70127;BME280;57491;42.694;23.314;2023-03-14T01:14:05;95266.19;;;5.88;42.17
70127;BME280;57491;42.694;23.314;2023-03-14T01:16:34;95258.16;;;5.81;42.07
70127;BME280;57491;42.694;23.314;2023-03-14T01:19:02;95260.31;;;5.59;42.91
70127;BME280;57491;42.694;23.314;2023-03-14T01:21:31;95255.16;;;5.59;43.07
70127;BME280;57491;42.694;23.314;2023-03-14T01:24:00;95248.13;;;5.61;43.00
70127;BME280;57491;42.694;23.314;2023-03-14T01:26:29;95247.59;;;5.57;43.24
70127;BME280;57491;42.694;23.314;2023-03-14T01:28:57;95244.19;;;5.57;43.06
70127;BME280;57491;42.694;23.314;2023-03-14T01:31:26;95241.84;;;5.63;44.62
70127;BME280;57491;42.694;23.314;2023-03-14T01:33:54;95236.03;;;5.61;43.27
70127;BME280;57491;42.694;23.314;2023-03-14T01:36:21;95239.56;;;5.60;43.04
70127;BME280;57491;42.694;23.314;2023-03-14T01:38:48;95234.41;;;5.33;43.05
70127;BME280;57491;42.694;23.314;2023-03-14T01:41:17;95232.16;;;5.48;44.04
70127;BME280;57491;42.694;23.314;2023-03-14T01:43:45;95240.41;;;5.24;44.47
70127;BME280;57491;42.694;23.314;2023-03-14T01:49:09;95238.22;;;5.56;46.69
70127;BME280;57491;42.694;23.314;2023-03-14T01:51:39;95233.31;;;5.63;45.48
70127;BME280;57491;42.694;23.314;2023-03-14T01:54:13;95227.34;;;5.62;46.61
70127;BME280;57491;42.694;23.314;2023-03-14T01:56:43;95219.69;;;5.70;46.31
70127;BME280;57491;42.694;23.314;2023-03-14T01:59:12;95219.38;;;5.73;46.14
70127;BME280;57491;42.694;23.314;2023-03-14T02:01:42;95219.94;;;5.67;46.98
70127;BME280;57491;42.694;23.314;2023-03-14T02:04:11;95222.44;;;5.59;47.15
70127;BME280;57491;42.694;23.314;2023-03-14T02:06:44;95224.19;;;5.41;47.89
70127;BME280;57491;42.694;23.314;2023-03-14T02:09:14;95230.78;;;5.26;48.58
70127;BME280;57491;42.694;23.314;2023-03-14T02:11:41;95223.75;;;5.18;49.38
70127;BME280;57491;42.694;23.314;2023-03-14T02:14:10;95225.97;;;5.13;51.39
70127;BME280;57491;42.694;23.314;2023-03-14T02:16:41;95218.97;;;5.23;50.58
70127;BME280;57491;42.694;23.314;2023-03-14T02:19:08;95218.59;;;5.18;50.81
70127;BME280;57491;42.694;23.314;2023-03-14T02:21:46;95214.69;;;5.14;49.07
70127;BME280;57491;42.694;23.314;2023-03-14T02:24:22;95209.44;;;5.06;48.87
70127;BME280;57491;42.694;23.314;2023-03-14T02:27:11;95217.34;;;4.95;49.49
70127;BME280;57491;42.694;23.314;2023-03-14T02:29:49;95216.28;;;4.88;49.41
70127;BME280;57491;42.694;23.314;2023-03-14T02:32:18;95210.59;;;4.84;49.83
70127;BME280;57491;42.694;23.314;2023-03-14T02:34:49;95213.56;;;4.89;49.83
70127;BME280;57491;42.694;23.314;2023-03-14T02:37:19;95223.34;;;4.86;50.43
70127;BME280;57491;42.694;23.314;2023-03-14T02:39:47;95227.94;;;4.82;50.21
70127;BME280;57491;42.694;23.314;2023-03-14T02:42:16;95219.81;;;4.77;50.62
70127;BME280;57491;42.694;23.314;2023-03-14T02:44:52;95225.25;;;4.74;51.04
70127;BME280;57491;42.694;23.314;2023-03-14T02:47:24;95228.50;;;4.86;50.18
70127;BME280;57491;42.694;23.314;2023-03-14T02:49:59;95220.38;;;4.81;50.31
70127;BME280;57491;42.694;23.314;2023-03-14T02:52:27;95219.69;;;4.79;50.73
70127;BME280;57491;42.694;23.314;2023-03-14T02:54:55;95225.38;;;4.82;51.15
70127;BME280;57491;42.694;23.314;2023-03-14T02:57:23;95228.22;;;4.89;50.10
70127;BME280;57491;42.694;23.314;2023-03-14T02:59:50;95224.81;;;4.88;50.54
70127;BME280;57491;42.694;23.314;2023-03-14T03:02:17;95227.28;;;4.80;51.38
70127;BME280;57491;42.694;23.314;2023-03-14T03:04:45;95230.53;;;4.73;50.50
70127;BME280;57491;42.694;23.314;2023-03-14T03:07:12;95216.38;;;4.59;50.83
70127;BME280;57491;42.694;23.314;2023-03-14T03:09:39;95231.53;;;4.62;51.50
70127;BME280;57491;42.694;23.314;2023-03-14T03:12:06;95232.75;;;4.58;50.79
70127;BME280;57491;42.694;23.314;2023-03-14T03:14:35;95217.31;;;4.48;51.13
70127;BME280;57491;42.694;23.314;2023-03-14T03:17:03;95231.41;;;4.54;51.75
70127;BME280;57491;42.694;23.314;2023-03-14T03:19:30;95228.69;;;4.46;51.96
70127;BME280;57491;42.694;23.314;2023-03-14T03:21:57;95241.56;;;4.56;54.14
70127;BME280;57491;42.694;23.314;2023-03-14T03:24:24;95221.75;;;4.66;51.23
70127;BME280;57491;42.694;23.314;2023-03-14T03:26:52;95223.81;;;4.62;52.15
70127;BME280;57491;42.694;23.314;2023-03-14T03:29:19;95214.88;;;4.57;52.45
70127;BME280;57491;42.694;23.314;2023-03-14T03:31:47;95224.72;;;4.71;51.42
70127;BME280;57491;42.694;23.314;2023-03-14T03:34:15;95221.75;;;4.75;51.28
70127;BME280;57491;42.694;23.314;2023-03-14T03:36:42;95221.31;;;4.80;52.33
70127;BME280;57491;42.694;23.314;2023-03-14T03:39:09;95207.91;;;4.76;51.56
70127;BME280;57491;42.694;23.314;2023-03-14T03:41:36;95226.59;;;4.78;50.91
70127;BME280;57491;42.694;23.314;2023-03-14T03:44:03;95221.06;;;4.73;51.43
70127;BME280;57491;42.694;23.314;2023-03-14T03:46:31;95224.31;;;4.75;51.08
70127;BME280;57491;42.694;23.314;2023-03-14T03:49:00;95213.78;;;4.59;50.58
70127;BME280;57491;42.694;23.314;2023-03-14T03:51:27;95240.19;;;4.61;51.25
70127;BME280;57491;42.694;23.314;2023-03-14T03:53:55;95235.59;;;4.55;50.93
70127;BME280;57491;42.694;23.314;2023-03-14T03:56:22;95241.31;;;4.49;50.68
70127;BME280;57491;42.694;23.314;2023-03-14T03:58:49;95229.53;;;4.37;50.85
70127;BME280;57491;42.694;23.314;2023-03-14T04:01:16;95233.31;;;4.33;51.67
70127;BME280;57491;42.694;23.314;2023-03-14T04:03:44;95231.84;;;4.30;51.71
70127;BME280;57491;42.694;23.314;2023-03-14T04:06:13;95219.69;;;4.23;51.69
70127;BME280;57491;42.694;23.314;2023-03-14T04:08:40;95230.78;;;4.23;51.47
70127;BME280;57491;42.694;23.314;2023-03-14T04:11:07;95234.00;;;4.25;52.17
70127;BME280;57491;42.694;23.314;2023-03-14T04:13:34;95233.47;;;4.22;52.08
70127;BME280;57491;42.694;23.314;2023-03-14T04:16:01;95225.63;;;4.23;52.06
70127;BME280;57491;42.694;23.314;2023-03-14T04:18:28;95217.22;;;4.21;51.86
70127;BME280;57491;42.694;23.314;2023-03-14T04:20:57;95219.38;;;4.26;52.88
70127;BME280;57491;42.694;23.314;2023-03-14T04:23:25;95216.13;;;4.33;51.92
70127;BME280;57491;42.694;23.314;2023-03-14T04:25:53;95212.72;;;4.33;52.28
70127;BME280;57491;42.694;23.314;2023-03-14T04:28:20;95210.16;;;4.33;50.50
70127;BME280;57491;42.694;23.314;2023-03-14T04:30:47;95213.72;;;4.32;51.71
70127;BME280;57491;42.694;23.314;2023-03-14T04:33:14;95202.31;;;4.34;51.62
70127;BME280;57491;42.694;23.314;2023-03-14T04:35:42;95208.69;;;4.40;51.74
70127;BME280;57491;42.694;23.314;2023-03-14T04:38:10;95203.78;;;4.46;52.17
70127;BME280;57491;42.694;23.314;2023-03-14T04:40:39;95193.63;;;4.55;52.14
70127;BME280;57491;42.694;23.314;2023-03-14T04:43:06;95188.41;;;4.64;54.32
70127;BME280;57491;42.694;23.314;2023-03-14T04:45:35;95187.22;;;4.68;55.15
70127;BME280;57491;42.694;23.314;2023-03-14T04:48:02;95198.38;;;4.86;54.00
70127;BME280;57491;42.694;23.314;2023-03-14T04:50:29;95185.88;;;4.91;53.00
70127;BME280;57491;42.694;23.314;2023-03-14T04:52:56;95181.28;;;4.95;52.48
70127;BME280;57491;42.694;23.314;2023-03-14T04:55:23;95177.06;;;4.94;52.17
70127;BME280;57491;42.694;23.314;2023-03-14T04:57:52;95183.28;;;5.01;51.06
70127;BME280;57491;42.694;23.314;2023-03-14T05:00:19;95189.91;;;5.04;51.83
70127;BME280;57491;42.694;23.314;2023-03-14T05:02:46;95179.31;;;5.07;51.83
70127;BME280;57491;42.694;23.314;2023-03-14T05:05:13;95175.22;;;5.14;50.72
70127;BME280;57491;42.694;23.314;2023-03-14T05:07:40;95176.19;;;5.13;51.01
70127;BME280;57491;42.694;23.314;2023-03-14T05:10:08;95176.78;;;5.24;49.83
70127;BME280;57491;42.694;23.314;2023-03-14T05:12:35;95173.00;;;5.19;48.56
70127;BME280;57491;42.694;23.314;2023-03-14T05:15:05;95175.47;;;5.20;49.12
70127;BME280;57491;42.694;23.314;2023-03-14T05:17:32;95169.88;;;5.25;49.29
70127;BME280;57491;42.694;23.314;2023-03-14T05:19:59;95174.94;;;5.44;47.82
70127;BME280;57491;42.694;23.314;2023-03-14T05:22:26;95175.66;;;5.54;47.66
70127;BME280;57491;42.694;23.314;2023-03-14T05:24:53;95161.28;;;5.52;47.04
70127;BME280;57491;42.694;23.314;2023-03-14T05:27:22;95169.19;;;5.68;46.83
70127;BME280;57491;42.694;23.314;2023-03-14T05:29:49;95163.88;;;5.69;47.21
70127;BME280;57491;42.694;23.314;2023-03-14T05:32:18;95170.16;;;5.84;46.94
70127;BME280;57491;42.694;23.314;2023-03-14T05:34:45;95170.41;;;5.91;46.79
70127;BME280;57491;42.694;23.314;2023-03-14T05:37:12;95170.25;;;6.10;45.72
70127;BME280;57491;42.694;23.314;2023-03-14T05:39:39;95171.03;;;6.28;46.65
70127;BME280;57491;42.694;23.314;2023-03-14T05:42:06;95169.69;;;6.42;44.92
70127;BME280;57491;42.694;23.314;2023-03-14T05:44:33;95174.59;;;6.53;44.70
70127;BME280;57491;42.694;23.314;2023-03-14T05:47:00;95171.72;;;6.56;44.80
70127;BME280;57491;42.694;23.314;2023-03-14T05:49:28;95173.56;;;6.72;44.39
70127;BME280;57491;42.694;23.314;2023-03-14T05:51:55;95153.47;;;6.84;43.52
70127;BME280;57491;42.694;23.314;2023-03-14T05:54:22;95168.13;;;7.09;43.74
70127;BME280;57491;42.694;23.314;2023-03-14T05:56:49;95172.31;;;7.10;43.02
70127;BME280;57491;42.694;23.314;2023-03-14T05:59:16;95175.19;;;7.07;43.14
70127;BME280;57491;42.694;23.314;2023-03-14T06:01:43;95175.78;;;7.27;43.49
70127;BME280;57491;42.694;23.314;2023-03-14T06:04:11;95177.56;;;7.34;42.89
70127;BME280;57491;42.694;23.314;2023-03-14T06:06:40;95163.22;;;7.48;42.27
70127;BME280;57491;42.694;23.314;2023-03-14T06:09:07;95158.13;;;7.64;42.35
70127;BME280;57491;42.694;23.314;2023-03-14T06:11:34;95162.19;;;7.83;41.73
70127;BME280;57491;42.694;23.314;2023-03-14T06:14:01;95163.31;;;7.80;41.58
70127;BME280;57491;42.694;23.314;2023-03-14T06:16:28;95163.97;;;7.82;41.71
70127;BME280;57491;42.694;23.314;2023-03-14T06:18:55;95166.06;;;7.79;41.93
70127;BME280;57491;42.694;23.314;2023-03-14T06:21:22;95159.13;;;7.87;41.57
70127;BME280;57491;42.694;23.314;2023-03-14T06:23:51;95176.91;;;8.06;41.71
70127;BME280;57491;42.694;23.314;2023-03-14T06:26:18;95170.09;;;7.81;42.38
70127;BME280;57491;42.694;23.314;2023-03-14T06:28:45;95173.66;;;7.88;43.05
70127;BME280;57491;42.694;23.314;2023-03-14T06:31:12;95173.69;;;8.21;42.04
70127;BME280;57491;42.694;23.314;2023-03-14T06:33:39;95174.84;;;8.42;41.04
70127;BME280;57491;42.694;23.314;2023-03-14T06:36:07;95166.44;;;8.48;40.92
70127;BME280;57491;42.694;23.314;2023-03-14T06:38:34;95167.06;;;8.67;40.66
70127;BME280;57491;42.694;23.314;2023-03-14T06:41:05;95165.38;;;8.90;39.96
70127;BME280;57491;42.694;23.314;2023-03-14T06:43:32;95158.00;;;9.10;39.40
70127;BME280;57491;42.694;23.314;2023-03-14T06:45:59;95159.44;;;9.20;39.06
70127;BME280;57491;42.694;23.314;2023-03-14T06:48:26;95153.16;;;9.46;38.87
70127;BME280;57491;42.694;23.314;2023-03-14T06:50:53;95142.06;;;9.60;38.64
70127;BME280;57491;42.694;23.314;2023-03-14T06:53:20;95144.19;;;9.56;38.77
70127;BME280;57491;42.694;23.314;2023-03-14T06:55:47;95145.84;;;9.80;38.19
70127;BME280;57491;42.694;23.314;2023-03-14T06:58:16;95139.84;;;9.79;37.82
70127;BME280;57491;42.694;23.314;2023-03-14T07:00:43;95134.88;;;9.93;37.60
70127;BME280;57491;42.694;23.314;2023-03-14T07:03:10;95123.22;;;9.89;36.99
70127;BME280;57491;42.694;23.314;2023-03-14T07:05:38;95135.75;;;10.08;36.34
70127;BME280;57491;42.694;23.314;2023-03-14T07:08:06;95129.91;;;10.06;35.96
70127;BME280;57491;42.694;23.314;2023-03-14T07:10:33;95128.78;;;10.46;35.84
70127;BME280;57491;42.694;23.314;2023-03-14T07:13:00;95121.66;;;10.62;35.43
70127;BME280;57491;42.694;23.314;2023-03-14T07:15:29;95125.72;;;10.80;34.88
70127;BME280;57491;42.694;23.314;2023-03-14T07:17:56;95121.28;;;10.95;34.39
70127;BME280;57491;42.694;23.314;2023-03-14T07:20:23;95097.91;;;10.80;34.50
70127;BME280;57491;42.694;23.314;2023-03-14T07:22:50;95130.19;;;11.00;34.35
70127;BME280;57491;42.694;23.314;2023-03-14T07:25:17;95118.59;;;11.17;34.24
70127;BME280;57491;42.694;23.314;2023-03-14T07:27:45;95127.09;;;11.41;33.08
70127;BME280;57491;42.694;23.314;2023-03-14T07:30:14;95121.56;;;11.65;33.77
70127;BME280;57491;42.694;23.314;2023-03-14T07:32:42;95113.38;;;11.68;32.99
70127;BME280;57491;42.694;23.314;2023-03-14T07:35:09;95115.41;;;11.87;33.25
70127;BME280;57491;42.694;23.314;2023-03-14T07:37:36;95106.31;;;12.26;34.05
70127;BME280;57491;42.694;23.314;2023-03-14T07:40:04;95108.94;;;12.47;31.69
70127;BME280;57491;42.694;23.314;2023-03-14T07:42:32;95095.75;;;12.62;31.51
70127;BME280;57491;42.694;23.314;2023-03-14T07:44:59;95095.16;;;12.94;31.49
70127;BME280;57491;42.694;23.314;2023-03-14T07:47:26;95096.78;;;12.95;30.90
70127;BME280;57491;42.694;23.314;2023-03-14T07:49:55;95095.16;;;12.87;31.46
70127;BME280;57491;42.694;23.314;2023-03-14T07:52:22;95096.78;;;12.95;30.47
70127;BME280;57491;42.694;23.314;2023-03-14T07:54:50;95096.03;;;13.08;30.89
70127;BME280;57491;42.694;23.314;2023-03-14T07:57:17;95105.00;;;13.33;30.76
70127;BME280;57491;42.694;23.314;2023-03-14T07:59:44;95094.88;;;13.58;29.77
70127;BME280;57491;42.694;23.314;2023-03-14T08:02:11;95092.09;;;13.72;30.90
70127;BME280;57491;42.694;23.314;2023-03-14T08:04:39;95090.75;;;14.03;29.44
70127;BME280;57491;42.694;23.314;2023-03-14T08:07:07;95085.53;;;14.16;29.08
70127;BME280;57491;42.694;23.314;2023-03-14T08:09:34;95077.91;;;14.54;28.64
70127;BME280;57491;42.694;23.314;2023-03-14T08:12:02;95080.28;;;14.75;28.02
70127;BME280;57491;42.694;23.314;2023-03-14T08:14:29;95080.66;;;14.92;27.56
70127;BME280;57491;42.694;23.314;2023-03-14T08:16:57;95080.19;;;15.14;26.88
70127;BME280;57491;42.694;23.314;2023-03-14T08:19:24;95082.19;;;15.26;26.65
70127;BME280;57491;42.694;23.314;2023-03-14T08:21:52;95079.75;;;15.24;26.03
70127;BME280;57491;42.694;23.314;2023-03-14T08:24:21;95079.22;;;15.67;26.33
70127;BME280;57491;42.694;23.314;2023-03-14T08:26:48;95078.28;;;15.86;25.62
70127;BME280;57491;42.694;23.314;2023-03-14T08:29:14;95082.16;;;16.08;25.42
70127;BME280;57491;42.694;23.314;2023-03-14T08:31:42;95079.03;;;16.24;25.46
70127;BME280;57491;42.694;23.314;2023-03-14T08:34:09;95075.09;;;16.65;24.62
70127;BME280;57491;42.694;23.314;2023-03-14T08:36:36;95065.63;;;16.82;24.54
70127;BME280;57491;42.694;23.314;2023-03-14T08:39:03;95069.75;;;17.14;23.57
70127;BME280;57491;42.694;23.314;2023-03-14T08:41:34;95062.00;;;17.19;23.55
70127;BME280;57491;42.694;23.314;2023-03-14T08:44:05;95056.44;;;17.27;24.01
70127;BME280;57491;42.694;23.314;2023-03-14T08:46:32;95047.78;;;17.57;23.75
70127;BME280;57491;42.694;23.314;2023-03-14T08:48:59;95049.13;;;18.07;22.29
70127;BME280;57491;42.694;23.314;2023-03-14T08:51:26;95046.81;;;17.99;21.62
70127;BME280;57491;42.694;23.314;2023-03-14T08:53:54;95042.28;;;18.18;21.79
70127;BME280;57491;42.694;23.314;2023-03-14T08:56:21;95032.72;;;17.94;21.23
70127;BME280;57491;42.694;23.314;2023-03-14T08:58:50;95027.78;;;18.27;21.65
70127;BME280;57491;42.694;23.314;2023-03-14T09:01:17;95024.88;;;18.28;21.21
70127;BME280;57491;42.694;23.314;2023-03-14T09:03:44;95016.31;;;18.33;21.58
70127;BME280;57491;42.694;23.314;2023-03-14T09:06:12;95006.75;;;18.62;21.36
70127;BME280;57491;42.694;23.314;2023-03-14T09:08:39;95003.50;;;18.95;20.66
70127;BME280;57491;42.694;23.314;2023-03-14T09:11:07;95004.81;;;19.21;20.22
70127;BME280;57491;42.694;23.314;2023-03-14T09:13:35;94994.44;;;19.54;19.90
70127;BME280;57491;42.694;23.314;2023-03-14T09:16:04;94993.75;;;19.75;19.88
70127;BME280;57491;42.694;23.314;2023-03-14T09:18:31;94985.22;;;20.01;19.53
70127;BME280;57491;42.694;23.314;2023-03-14T09:20:58;94982.31;;;19.86;19.31
70127;BME280;57491;42.694;23.314;2023-03-14T09:23:25;94979.44;;;20.04;18.72
70127;BME280;57491;42.694;23.314;2023-03-14T09:25:54;94977.53;;;20.17;19.22
70127;BME280;57491;42.694;23.314;2023-03-14T09:28:21;94977.00;;;20.48;18.72
70127;BME280;57491;42.694;23.314;2023-03-14T09:30:49;94966.09;;;20.83;18.25
70127;BME280;57491;42.694;23.314;2023-03-14T09:33:18;94967.94;;;21.04;18.02
70127;BME280;57491;42.694;23.314;2023-03-14T09:35:45;94960.59;;;21.06;18.18
70127;BME280;57491;42.694;23.314;2023-03-14T09:38:12;94945.84;;;21.59;18.46
70127;BME280;57491;42.694;23.314;2023-03-14T09:40:39;94951.56;;;21.77;17.43
70127;BME280;57491;42.694;23.314;2023-03-14T09:43:09;94940.19;;;21.77;17.65
70127;BME280;57491;42.694;23.314;2023-03-14T09:45:40;94940.38;;;22.34;17.02
70127;BME280;57491;42.694;23.314;2023-03-14T09:48:15;94934.59;;;22.37;17.08
70127;BME280;57491;42.694;23.314;2023-03-14T09:50:48;94928.28;;;21.79;17.26
70127;BME280;57491;42.694;23.314;2023-03-14T09:53:18;94910.31;;;21.81;17.76
70127;BME280;57491;42.694;23.314;2023-03-14T09:55:45;94910.41;;;21.92;17.40
70127;BME280;57491;42.694;23.314;2023-03-14T09:58:16;94905.59;;;21.89;16.85
70127;BME280;57491;42.694;23.314;2023-03-14T10:00:44;94907.94;;;22.54;16.65
70127;BME280;57491;42.694;23.314;2023-03-14T10:03:26;94913.19;;;22.91;15.37
70127;BME280;57491;42.694;23.314;2023-03-14T10:05:57;94900.50;;;23.03;15.55
70127;BME280;57491;42.694;23.314;2023-03-14T10:08:24;94898.09;;;23.06;15.80
70127;BME280;57491;42.694;23.314;2023-03-14T10:10:52;94892.59;;;23.28;15.64
70127;BME280;57491;42.694;23.314;2023-03-14T10:13:22;94888.38;;;23.37;15.08
70127;BME280;57491;42.694;23.314;2023-03-14T10:15:52;94886.25;;;22.20;15.61
70127;BME280;57491;42.694;23.314;2023-03-14T10:18:21;94871.22;;;22.25;15.78
70127;BME280;57491;42.694;23.314;2023-03-14T10:20:52;94865.06;;;22.20;16.01
70127;BME280;57491;42.694;23.314;2023-03-14T10:23:31;94856.53;;;21.44;16.96
70127;BME280;57491;42.694;23.314;2023-03-14T10:26:08;94844.06;;;21.71;16.96
70127;BME280;57491;42.694;23.314;2023-03-14T10:28:39;94843.84;;;22.10;16.69
70127;BME280;57491;42.694;23.314;2023-03-14T10:31:06;94828.19;;;22.60;16.83
70127;BME280;57491;42.694;23.314;2023-03-14T10:33:35;94829.19;;;23.17;16.61
70127;BME280;57491;42.694;23.314;2023-03-14T10:36:05;94833.22;;;23.75;16.14
70127;BME280;57491;42.694;23.314;2023-03-14T10:38:36;94818.31;;;24.09;15.66
70127;BME280;57491;42.694;23.314;2023-03-14T10:41:16;94811.41;;;24.13;15.79
70127;BME280;57491;42.694;23.314;2023-03-14T10:43:44;94796.19;;;24.49;15.90
70127;BME280;57491;42.694;23.314;2023-03-14T10:46:14;94794.69;;;24.82;15.62
70127;BME280;57491;42.694;23.314;2023-03-14T10:48:43;94796.28;;;24.83;15.69
70127;BME280;57491;42.694;23.314;2023-03-14T10:51:18;94783.13;;;25.12;15.56
70127;BME280;57491;42.694;23.314;2023-03-14T10:53:49;94782.16;;;24.98;15.84
70127;BME280;57491;42.694;23.314;2023-03-14T10:56:19;94777.53;;;25.08;15.74
70127;BME280;57491;42.694;23.314;2023-03-14T10:58:48;94773.88;;;24.99;15.76
70127;BME280;57491;42.694;23.314;2023-03-14T11:01:33;94766.78;;;24.90;16.00
70127;BME280;57491;42.694;23.314;2023-03-14T11:04:13;94762.22;;;24.36;16.91
70127;BME280;57491;42.694;23.314;2023-03-14T11:06:44;94757.09;;;24.50;16.66
70127;BME280;57491;42.694;23.314;2023-03-14T11:09:21;94755.66;;;24.03;16.62
70127;BME280;57491;42.694;23.314;2023-03-14T11:11:50;94745.00;;;24.23;16.83
70127;BME280;57491;42.694;23.314;2023-03-14T11:14:25;94725.03;;;24.90;16.18
70127;BME280;57491;42.694;23.314;2023-03-14T11:16:59;94726.66;;;25.49;15.87
70127;BME280;57491;42.694;23.314;2023-03-14T11:19:47;94712.88;;;25.75;15.61
70127;BME280;57491;42.694;23.314;2023-03-14T11:22:24;94708.44;;;25.90;15.51
70127;BME280;57491;42.694;23.314;2023-03-14T11:25:18;94683.53;;;26.28;15.02
70127;BME280;57491;42.694;23.314;2023-03-14T11:27:53;94685.69;;;27.20;14.47
70127;BME280;57491;42.694;23.314;2023-03-14T11:30:29;94687.88;;;27.50;14.17
70127;BME280;57491;42.694;23.314;2023-03-14T11:33:02;94683.69;;;28.31;13.42
70127;BME280;57491;42.694;23.314;2023-03-14T11:35:34;94676.16;;;28.69;13.64
70127;BME280;57491;42.694;23.314;2023-03-14T11:38:24;94664.09;;;29.60;13.36
70127;BME280;57491;42.694;23.314;2023-03-14T11:40:58;94669.03;;;29.98;12.70
70127;BME280;57491;42.694;23.314;2023-03-14T11:43:28;94669.63;;;29.95;12.33
70127;BME280;57491;42.694;23.314;2023-03-14T11:46:03;94650.59;;;30.53;12.00
70127;BME280;57491;42.694;23.314;2023-03-14T11:48:37;94652.81;;;31.11;11.25
70127;BME280;57491;42.694;23.314;2023-03-14T11:51:11;94640.59;;;31.95;11.29
70127;BME280;57491;42.694;23.314;2023-03-14T11:53:48;94645.59;;;32.13;10.78
70127;BME280;57491;42.694;23.314;2023-03-14T11:56:24;94637.56;;;32.55;10.95
70127;BME280;57491;42.694;23.314;2023-03-14T11:58:57;94636.53;;;31.80;10.83
70127;BME280;57491;42.694;23.314;2023-03-14T12:01:33;94621.25;;;31.63;11.05
70127;BME280;57491;42.694;23.314;2023-03-14T12:04:10;94618.28;;;31.56;11.25
70127;BME280;57491;42.694;23.314;2023-03-14T12:06:46;94614.78;;;30.01;11.37
70127;BME280;57491;42.694;23.314;2023-03-14T12:09:16;94608.25;;;29.85;11.67
70127;BME280;57491;42.694;23.314;2023-03-14T12:11:48;94599.66;;;30.13;12.24
70127;BME280;57491;42.694;23.314;2023-03-14T12:14:22;94594.06;;;30.49;11.55
70127;BME280;57491;42.694;23.314;2023-03-14T12:16:53;94580.75;;;30.10;11.57
70127;BME280;57491;42.694;23.314;2023-03-14T12:19:32;94586.78;;;30.93;11.20
70127;BME280;57491;42.694;23.314;2023-03-14T12:22:07;94579.22;;;30.78;11.18
70127;BME280;57491;42.694;23.314;2023-03-14T12:24:37;94573.22;;;30.64;11.32
70127;BME280;57491;42.694;23.314;2023-03-14T12:27:08;94571.03;;;30.66;11.22
70127;BME280;57491;42.694;23.314;2023-03-14T12:29:58;94559.78;;;32.41;10.50
70127;BME280;57491;42.694;23.314;2023-03-14T12:32:26;94548.75;;;33.41;10.29
70127;BME280;57491;42.694;23.314;2023-03-14T12:34:53;94556.75;;;33.98;9.37
70127;BME280;57491;42.694;23.314;2023-03-14T12:37:26;94549.09;;;33.88;9.25
70127;BME280;57491;42.694;23.314;2023-03-14T12:40:03;94545.38;;;33.44;9.55
70127;BME280;57491;42.694;23.314;2023-03-14T12:42:51;94539.97;;;32.66;10.20
70127;BME280;57491;42.694;23.314;2023-03-14T12:45:27;94542.09;;;31.52;10.77
70127;BME280;57491;42.694;23.314;2023-03-14T12:48:17;94539.94;;;30.30;11.31
70127;BME280;57491;42.694;23.314;2023-03-14T12:50:53;94529.53;;;29.63;11.42
70127;BME280;57491;42.694;23.314;2023-03-14T12:56:28;94497.78;;;31.29;10.85
70127;BME280;57491;42.694;23.314;2023-03-14T12:59:17;94501.19;;;31.76;11.12
70127;BME280;57491;42.694;23.314;2023-03-14T13:01:54;94493.41;;;32.04;10.29
70127;BME280;57491;42.694;23.314;2023-03-14T13:04:27;94497.00;;;32.16;10.24
70127;BME280;57491;42.694;23.314;2023-03-14T13:06:57;94503.41;;;32.45;10.20
70127;BME280;57491;42.694;23.314;2023-03-14T13:09:51;94494.00;;;31.88;10.42
70127;BME280;57491;42.694;23.314;2023-03-14T13:12:25;94491.75;;;31.70;10.21